Pinson, TN

8:47 AM CDT on August 03, 2015 (GMT -0500)
APRSWXNET | | Change Station
CLOSE
Current Station
Personal Weather Station
Location: Henderson, TN
Elevation: 459 ft
Nearby Weather Stations

Elev 459 ft 35.43 °N, 88.65 °W | Updated 27 minutes ago

Clear
Clear
78 °F
Feels Like 80 °F
N
0
Wind Variable Wind from North
Gusts 0.0 mph

Today
High -- | Low -- °F
--% Chance of Precip.
Yesterday
High -- | Low -- °F
Precip. -- in
6:04 AM 7:57 PM
Waning Gibbous, 86% visible
Pressure 29.93 in
Visibility 10.0 miles
Clouds Clear
Heat Index 80 °F
Dew Point 71 °F
Humidity 79%
Rainfall in
Snow Depth Not available.
UV 2 out of 12
Pollen 6.20 out of 12
Air Quality Not available.
Flu Activity Not available.
METAR KMKL 031253Z 20004KT 10SM CLR 24/19 A2995 RMK AO2 SLP135 T02440189

More Conditions Fewer Conditions

Pressure 29.93 in
Visibility 10.0 miles
Clouds Clear
Heat Index 80 °F
Dew Point 71 °F
Humidity 79%
Rainfall in
Snow Depth Not available.
UV 2 out of 12
Pollen 6.20 out of 12
Air Quality Not available.
Flu Activity Not available.
METAR KMKL 031253Z 20004KT 10SM CLR 24/19 A2995 RMK AO2 SLP135 T02440189

More Conditions Fewer Conditions

10-Day Weather Forecast

×

Almanac

Astronomy

Aug. 03, 2015 Rise Set
Actual Time
Civil Twilight
Nautical Twilight
Astronomical Twilight
Moon
Length of Visible Light
Length of Day
Tomorrow will be .
, % of the Moon is Illuminated

Today's Extremes

State Highs State Lows

Community

WunderPhotos

Upload Photos

1,843,634 photos uploaded!

WunderBlogs® & News

Nearby

Air Quality

  Air Quality AQ Index Pollutant
Not available.

Snow Depth

Station Depth Elevation

Earthquake Activity

City Distance Mag. Time & Date
Minimum magnitude displayed is 2.5.

Coastal Water Temperatures

Place Temperature

Stations

Nearby Weather Stations

Station Location Temp. Windchill Dew Point Humidity Wind Precip. Elev Updated Type